Latest Weather Observations for Hartz Mountains

IDT60801

Issued at 8:02 pm EST Tuesday 19 June 2018 (issued every 10 minutes, with the page automatically refreshed every 10 minutes)

About weather observations | Map of weather stations | Latest weather observations for TAS | Other Formats
Station Details ID: 094191 Name: HARTZ MOUNTAIN (KEOGHS PIMPLE) Lat: -43.20 Lon: 146.77 Height: 831.0 m
Data from the previous 72 hours. | See also: Recent months at Hartz Mountains
Date/Time
EST
Temp
°C
App
Temp
°C
Dew
Point
°C
Rel
Hum
%
Delta-T
°C
Wind Press
QNH
hPa
Press
MSL
hPa
Rain since
9am
mm
Dir  Spd
km/h
Gust
km/h
Spd
kts
Gust
kts
19/08:00pm 2.5 -1.8 1.0 90 0.6 NW 13 17 7 9 - - 0.0
19/07:30pm 2.7 -1.1 1.5 92 0.5 NW 11 13 6 7 - - 0.0
19/07:00pm 2.5 -1.1 0.9 89 0.6 NW 9 11 5 6 - - 0.0
19/06:30pm 2.6 -1.4 0.7 87 0.8 NNW 11 13 6 7 - - 0.0
19/06:00pm 3.1 0.2 1.3 88 0.7 N 6 7 3 4 - - 0.0
19/05:30pm 3.8 2.2 2.5 91 0.5 CALM 0 0 0 0 - - 0.0
19/05:00pm 3.0 0.2 2.0 93 0.4 ESE 6 7 3 4 - - 0.0
19/04:30pm 3.7 0.0 2.5 92 0.5 SE 11 13 6 7 - - 0.0
19/04:00pm 4.8 2.9 2.7 86 0.9 SW 2 9 1 5 - - 0.0
19/03:30pm 5.8 3.3 3.5 85 1.0 N 6 7 3 4 - - 0.0
19/03:00pm 9.2 6.7 3.8 69 2.5 NW 6 11 3 6 - - 0.0
19/02:30pm 9.6 6.3 2.7 62 3.1 NW 9 13 5 7 - - 0.0
19/02:00pm 9.6 6.2 2.0 59 3.4 NW 9 13 5 7 - - 0.0
19/01:30pm 8.5 5.6 2.7 67 2.6 NW 7 11 4 6 - - 0.0
19/01:00pm 7.6 6.1 3.1 73 2.0 CALM 0 6 0 3 - - 0.0
19/12:30pm 7.6 5.9 1.9 67 2.5 CALM 0 2 0 1 - - 0.0
19/12:00pm 6.9 3.8 1.6 69 2.3 N 7 11 4 6 - - 0.0
19/11:30am 7.5 5.9 2.4 70 2.2 CALM 0 0 0 0 - - 0.0
19/11:00am 7.1 5.1 2.2 71 2.1 NNW 2 6 1 3 - - 0.0
19/10:30am 6.5 4.9 2.6 76 1.7 CALM 0 0 0 0 - - 0.0
19/10:00am 5.8 2.8 0.8 70 2.1 NW 6 7 3 4 - - 0.0
19/09:30am 4.9 1.5 -0.3 69 2.1 NNW 7 9 4 5 - - 0.0
19/09:00am 4.7 2.1 -1.9 62 2.5 NNE 2 7 1 4 - - 0.8
19/08:30am 4.8 0.1 -5.0 49 3.5 NNW 11 13 6 7 - - 0.8
19/08:00am 1.8 -3.4 -2.9 71 1.7 NW 15 19 8 10 - - 0.8
19/07:30am 0.1 -6.5 -0.2 98 0.1 NW 24 28 13 15 - - 0.8
19/07:00am -0.1 -5.0 -0.2 99 0.0 WNW 15 17 8 9 - - 0.8
19/06:30am 0.1 -4.7 0.0 99 0.0 NW 15 19 8 10 - - 0.8
19/06:00am -0.1 -4.2 -0.2 99 0.0 NW 11 13 6 7 - - 0.8
19/05:30am 0.2 -3.5 0.1 99 0.0 N 9 13 5 7 - - 0.8
19/05:00am 0.8 -2.8 0.7 99 0.0 NNE 9 13 5 7 - - 0.8
19/04:30am 1.2 -1.9 1.1 99 0.0 NE 7 15 4 8 - - 0.8
19/04:00am 1.2 -2.3 1.1 99 0.0 NE 9 13 5 7 - - 0.8
19/03:30am 1.2 -1.9 1.1 99 0.0 NE 7 15 4 8 - - 0.8
19/03:00am 1.4 -2.5 1.3 99 0.0 NE 11 15 6 8 - - 0.8
19/02:30am 1.6 -2.2 1.5 99 0.0 NE 11 15 6 8 - - 0.8
19/02:00am 1.7 -2.1 1.6 99 0.0 ENE 11 15 6 8 - - 0.8
19/01:30am 1.6 -2.6 1.5 99 0.0 ENE 13 17 7 9 - - 0.8
19/01:00am 1.7 -2.1 1.6 99 0.0 ENE 11 15 6 8 - - 0.8
19/12:30am 1.7 -2.2 1.4 98 0.1 E 11 15 6 8 - - 0.8
19/12:00am 1.6 -2.3 1.3 98 0.1 E 11 19 6 10 - - 0.8
 
Date/Time
EST
Temp
°C
App
Temp
°C
Dew
Point
°C
Rel
Hum
%
Delta-T
°C
Wind Press
QNH
hPa
Press
MSL
hPa
Rain since
9am
mm
Dir  Spd
km/h
Gust
km/h
Spd
kts
Gust
kts
18/11:30pm 1.7 -2.5 1.6 99 0.0 ESE 13 17 7 9 - - 0.8
18/11:00pm 1.6 -2.2 1.5 99 0.0 ESE 11 17 6 9 - - 0.8
18/10:30pm 1.6 -2.6 1.5 99 0.0 ESE 13 17 7 9 - - 0.8
18/10:00pm 1.7 -2.5 1.6 99 0.0 SE 13 17 7 9 - - 0.8
18/09:30pm 1.6 -2.2 1.5 99 0.0 S 11 17 6 9 - - 0.8
18/09:00pm 2.0 -2.2 1.9 99 0.0 SE 13 20 7 11 - - 0.8
18/08:30pm 1.8 -2.4 1.7 99 0.0 SSE 13 20 7 11 - - 0.8
18/08:00pm 1.8 -1.6 1.7 99 0.0 SSE 9 15 5 8 - - 0.8
18/07:30pm 2.1 -0.7 1.8 98 0.1 SSW 6 9 3 5 - - 0.8
18/07:00pm 2.0 -0.9 1.6 97 0.2 SW 6 9 3 5 - - 0.8
18/06:30pm 2.0 -0.9 1.3 95 0.3 E 6 9 3 5 - - 0.8
18/06:00pm 2.1 -1.0 1.2 94 0.4 SW 7 11 4 6 - - 0.8
18/05:30pm 2.0 -0.6 1.0 93 0.4 ENE 4 9 2 5 - - 0.8
18/05:00pm 2.2 -2.1 1.3 94 0.4 S 13 20 7 11 - - 0.6
18/04:30pm 2.8 -2.5 1.8 93 0.4 S 19 26 10 14 - - 0.6
18/04:00pm 3.5 -0.9 2.6 94 0.4 S 15 22 8 12 - - 0.6
18/03:30pm 4.2 -0.1 3.5 95 0.3 S 15 22 8 12 - - 0.6
18/03:00pm 4.8 1.4 3.9 94 0.4 S 11 19 6 10 - - 0.6
18/02:30pm 5.2 1.1 4.3 94 0.4 SSE 15 24 8 13 - - 0.4
18/02:00pm 5.2 1.4 4.0 92 0.5 SSW 13 20 7 11 - - 0.2
18/01:30pm 5.9 3.4 5.0 94 0.4 SSW 7 15 4 8 - - 0.2
18/01:00pm 4.7 0.4 3.4 91 0.6 S 15 22 8 12 - - 0.2
18/12:30pm 5.5 3.0 4.5 93 0.5 SSE 7 17 4 9 - - 0.2
18/12:00pm 5.0 2.0 4.3 95 0.3 SSW 9 15 5 8 - - 0.0
18/11:30am 4.3 1.2 3.6 95 0.3 SW 9 19 5 10 - - 0.0
18/11:00am 3.8 -1.3 2.9 94 0.4 S 19 28 10 15 - - 0.0
18/10:30am 3.4 -0.6 2.8 96 0.3 SSE 13 26 7 14 - - 0.0
18/10:00am 3.0 -1.5 2.4 96 0.3 SSW 15 30 8 16 - - 0.0
18/09:30am 2.5 -2.9 2.2 98 0.1 S 20 35 11 19 - - 0.0
18/09:00am 2.2 -1.9 2.1 99 0.0 S 13 37 7 20 - - 5.4
18/08:30am 2.0 -2.9 1.9 99 0.0 SSW 17 37 9 20 - - 5.4
18/08:00am 1.9 -4.0 1.8 99 0.0 SSW 22 35 12 19 - - 5.4
18/07:30am 1.9 -3.4 1.8 99 0.0 SSW 19 32 10 17 - - 5.2
18/07:00am 1.6 -2.6 1.5 99 0.0 SSW 13 28 7 15 - - 5.2
18/06:30am 1.5 -3.9 1.4 99 0.0 S 19 33 10 18 - - 5.0
18/06:00am 1.1 -3.2 1.0 99 0.0 SSW 13 28 7 15 - - 5.0
18/05:30am 0.9 -2.7 0.8 99 0.0 S 9 20 5 11 - - 5.0
18/05:00am 0.7 -3.7 0.3 97 0.2 S 13 26 7 14 - - 4.8
18/04:30am 0.3 -5.5 -0.3 96 0.2 SSW 20 32 11 17 - - 4.8
18/04:00am 0.3 -5.9 -0.1 97 0.2 SSW 22 43 12 23 - - 4.8
18/03:30am 0.8 -4.9 0.5 98 0.1 SSW 20 39 11 21 - - 4.8
18/03:29am 0.8 -4.9 0.5 98 0.1 S 20 39 11 21 - - 4.8
18/03:00am 0.9 -2.7 0.6 98 0.1 WSW 9 20 5 11 - - 4.6
18/02:30am 0.8 -2.8 0.4 97 0.2 SE 9 19 5 10 - - 4.6
18/02:00am 0.5 -6.5 -0.2 95 0.3 S 26 37 14 20 - - 4.6
18/01:30am 0.6 -5.2 0.0 96 0.2 S 20 32 11 17 - - 4.6
18/01:00am 0.9 -4.8 0.5 97 0.2 S 20 33 11 18 - - 4.6
18/12:30am 0.8 -4.0 0.2 96 0.2 S 15 22 8 12 - - 4.6
18/12:00am 1.0 -2.0 0.6 97 0.2 E 6 20 3 11 - - 4.6
 
Date/Time
EST
Temp
°C
App
Temp
°C
Dew
Point
°C
Rel
Hum
%
Delta-T
°C
Wind Press
QNH
hPa
Press
MSL
hPa
Rain since
9am
mm
Dir  Spd
km/h
Gust
km/h
Spd
kts
Gust
kts
17/11:30pm 0.9 -2.7 0.5 97 0.2 SW 9 24 5 13 - - 4.6
17/11:00pm 1.0 -4.5 0.6 97 0.2 S 19 33 10 18 - - 4.4
17/10:30pm 1.0 -4.2 0.4 96 0.2 S 17 33 9 18 - - 4.4
17/10:00pm 1.3 -3.0 0.9 97 0.2 SSW 13 26 7 14 - - 4.4
17/09:30pm 1.3 -3.0 0.9 97 0.2 SW 13 30 7 16 - - 4.4
17/09:00pm 1.4 -4.0 1.1 98 0.1 S 19 35 10 19 - - 4.4
17/08:30pm 1.7 -3.9 1.3 97 0.2 S 20 32 11 17 - - 4.2
17/08:00pm 1.9 -3.6 1.6 98 0.1 S 20 35 11 19 - - 4.2
17/07:30pm 1.9 -4.8 1.5 97 0.2 S 26 41 14 22 - - 4.0
17/07:00pm 2.1 -4.2 1.8 98 0.1 S 24 37 13 20 - - 3.6
17/06:30pm 2.1 -5.3 1.7 97 0.2 SSW 30 52 16 28 - - 3.6
17/06:25pm 2.1 -5.3 1.7 97 0.2 SSW 30 52 16 28 - - 3.6
17/06:00pm 2.2 -3.1 1.9 98 0.1 S 19 32 10 17 - - 3.6
17/05:30pm 2.3 -3.9 1.9 97 0.2 S 24 44 13 24 - - 3.4
17/05:00pm 2.6 -2.3 2.2 97 0.2 S 17 30 9 16 - - 3.2
17/04:30pm 2.6 -4.4 2.0 96 0.2 SSW 28 43 15 23 - - 3.2
17/04:00pm 2.8 -4.5 2.2 96 0.2 S 30 44 16 24 - - 3.2
17/03:30pm 2.8 -3.0 2.2 96 0.2 S 22 37 12 20 - - 3.0
17/03:00pm 3.0 -1.5 2.3 95 0.3 S 15 24 8 13 - - 3.0
17/02:30pm 3.1 -2.1 2.2 94 0.4 S 19 37 10 20 - - 2.8
17/02:00pm 3.1 -4.2 2.2 94 0.4 S 30 50 16 27 - - 2.8
17/01:30pm 3.2 -4.5 2.3 94 0.4 S 32 50 17 27 - - 2.6
17/01:00pm 3.4 -4.5 2.4 93 0.4 S 33 54 18 29 - - 2.6
17/12:30pm 3.9 -5.0 3.0 94 0.4 S 39 59 21 32 - - 2.6
17/12:00pm 4.2 -5.0 3.5 95 0.3 S 41 63 22 34 - - 2.6
17/11:51am 4.3 -3.2 3.7 96 0.3 SSE 32 50 17 27 - - 2.6
17/11:30am 4.2 -3.8 3.8 97 0.2 SSE 35 52 19 28 - - 2.4
17/11:00am 3.9 -4.2 3.2 95 0.3 S 35 54 19 29 - - 1.4
17/10:31am 4.5 -3.1 3.9 96 0.3 SSE 33 52 18 28 - - 0.8
17/10:30am 4.4 -3.6 3.8 96 0.3 SSE 35 52 19 28 - - 0.8
17/10:15am 4.4 -3.9 4.0 97 0.2 SSE 37 56 20 30 - - 0.6
17/10:00am 3.8 -5.8 3.4 97 0.2 SSE 43 57 23 31 - - 0.6
17/09:44am 4.0 -3.7 3.6 97 0.2 SSE 33 52 18 28 - - 0.6
17/09:30am 3.8 -5.0 3.5 98 0.1 SSE 39 52 21 28 - - 0.6
17/09:00am 3.9 -3.7 3.8 99 0.0 SSE 33 54 18 29 - - 41.4
17/08:48am 3.9 -3.5 3.8 99 0.0 SSE 32 52 17 28 - - 41.2
17/08:30am 3.8 -3.9 3.5 98 0.1 SSE 33 48 18 26 - - 41.0
17/08:01am 3.8 -3.7 3.5 98 0.1 SSE 32 56 17 30 - - 40.2
17/08:00am 3.8 -3.7 3.5 98 0.1 SSE 32 46 17 25 - - 40.2
17/07:30am 3.4 -3.4 3.1 98 0.1 SSE 28 37 15 20 - - 39.0
17/07:23am 3.1 -3.8 2.8 98 0.1 SSE 28 46 15 25 - - 39.0
17/07:00am 3.7 -3.4 3.6 99 0.0 SSE 30 44 16 24 - - 38.0
17/06:30am 3.7 -3.4 3.6 99 0.0 SSE 30 50 16 27 - - 37.8
17/06:06am 3.8 -3.7 3.7 99 0.0 SE 32 57 17 31 - - 37.6
17/06:00am 3.8 -3.3 3.7 99 0.0 SE 30 46 16 25 - - 37.6
17/05:30am 3.8 -5.0 3.5 98 0.1 SSE 39 61 21 33 - - 37.6
17/05:00am 3.9 -3.8 3.6 98 0.1 SSE 33 56 18 30 - - 37.2
17/04:30am 4.0 -4.0 3.9 99 0.0 SE 35 61 19 33 - - 36.6
17/04:00am 3.8 -5.9 3.7 99 0.0 SSE 44 69 24 37 - - 36.0
17/03:30am 3.9 -4.8 3.9 100 0.0 SSE 39 65 21 35 - - 35.4
17/03:00am 3.7 -4.7 3.7 100 0.0 SSE 37 69 20 37 - - 35.2
17/02:30am 4.0 -4.7 4.0 100 0.0 SE 39 59 21 32 - - 33.8
17/02:00am 3.7 -3.8 3.7 100 0.0 ESE 32 50 17 27 - - 32.4
17/01:45am 3.4 -4.7 3.4 100 0.0 SE 35 56 19 30 - - 31.2
17/01:42am 3.2 -4.9 3.1 99 0.0 SE 35 56 19 30 - - 31.2
17/01:30am 2.9 -5.7 2.8 99 0.0 SE 37 65 20 35 - - 29.6
17/01:28am 3.3 -4.4 3.2 99 0.0 SE 33 57 18 31 - - 29.4
17/01:00am 3.6 -4.5 3.5 99 0.0 SE 35 57 19 31 - - 26.8
17/12:30am 3.3 -5.6 3.0 98 0.1 SE 39 65 21 35 - - 24.4
17/12:00am 3.3 -5.2 2.9 97 0.2 SSE 37 63 20 34 - - 23.2
 
Date/Time
EST
Temp
°C
App
Temp
°C
Dew
Point
°C
Rel
Hum
%
Delta-T
°C
Wind Press
QNH
hPa
Press
MSL
hPa
Rain since
9am
mm
Dir  Spd
km/h
Gust
km/h
Spd
kts
Gust
kts
16/11:30pm 2.9 -4.8 2.3 96 0.3 S 32 50 17 27 - - 21.4
16/11:05pm 3.0 -4.9 2.3 95 0.3 S 33 54 18 29 - - 20.2
16/11:00pm 2.9 -5.0 2.2 95 0.3 S 33 48 18 26 - - 20.2
16/10:30pm 2.8 -4.5 2.2 96 0.2 SSW 30 41 16 22 - - 19.8
16/10:05pm 3.1 -4.2 2.5 96 0.3 S 30 48 16 26 - - 19.6
16/10:00pm 3.1 -3.8 2.7 97 0.2 S 28 41 15 22 - - 19.6
16/09:30pm 3.0 -4.6 2.6 97 0.2 S 32 43 17 23 - - 19.0
16/09:16pm 2.9 -5.0 2.5 97 0.2 S 33 52 18 28 - - 18.8
16/09:00pm 2.7 -5.0 2.3 97 0.2 S 32 41 17 22 - - 18.8
16/08:30pm 3.0 -4.3 2.7 98 0.1 SSE 30 43 16 23 - - 18.8
16/08:07pm 2.9 -4.8 2.5 97 0.2 S 32 54 17 29 - - 18.2

Other Formats:

Comma delimited format used in spreadsheet applications
http://www.bom.gov.au/fwo/IDT60801/IDT60801.94977.axf

JavaScript Object Notation format (JSON) in row-major order
http://www.bom.gov.au/fwo/IDT60801/IDT60801.94977.json